sensor_id;sensor_type;location;lat;lon;timestamp;P1;durP1;ratioP1;P2;durP2;ratioP2
1206;SDS011;593;53.184;8.216;2022-10-16T00:00:27;2.67;;;2.20;;
1206;SDS011;593;53.184;8.216;2022-10-16T00:02:52;3.27;;;2.00;;
1206;SDS011;593;53.184;8.216;2022-10-16T00:05:17;3.63;;;2.27;;
1206;SDS011;593;53.184;8.216;2022-10-16T00:07:43;2.57;;;1.90;;
1206;SDS011;593;53.184;8.216;2022-10-16T00:10:08;3.23;;;2.10;;
1206;SDS011;593;53.184;8.216;2022-10-16T00:12:33;3.17;;;2.20;;
1206;SDS011;593;53.184;8.216;2022-10-16T00:14:59;6.80;;;2.00;;
1206;SDS011;593;53.184;8.216;2022-10-16T00:17:24;4.10;;;2.63;;
1206;SDS011;593;53.184;8.216;2022-10-16T00:19:49;3.00;;;1.50;;
1206;SDS011;593;53.184;8.216;2022-10-16T00:22:15;3.63;;;1.90;;
1206;SDS011;593;53.184;8.216;2022-10-16T00:24:40;1.80;;;1.70;;
1206;SDS011;593;53.184;8.216;2022-10-16T00:27:05;2.57;;;2.07;;
1206;SDS011;593;53.184;8.216;2022-10-16T00:29:30;3.40;;;1.93;;
1206;SDS011;593;53.184;8.216;2022-10-16T00:31:56;2.07;;;1.90;;
1206;SDS011;593;53.184;8.216;2022-10-16T00:34:21;3.97;;;1.87;;
1206;SDS011;593;53.184;8.216;2022-10-16T00:36:46;3.20;;;1.60;;
1206;SDS011;593;53.184;8.216;2022-10-16T00:39:12;2.60;;;1.70;;
1206;SDS011;593;53.184;8.216;2022-10-16T00:41:37;2.47;;;1.60;;
1206;SDS011;593;53.184;8.216;2022-10-16T00:44:40;4.43;;;2.10;;
1206;SDS011;593;53.184;8.216;2022-10-16T00:47:08;2.47;;;1.57;;
1206;SDS011;593;53.184;8.216;2022-10-16T00:49:35;4.20;;;1.67;;
1206;SDS011;593;53.184;8.216;2022-10-16T00:52:01;2.30;;;1.60;;
1206;SDS011;593;53.184;8.216;2022-10-16T00:54:27;2.00;;;1.17;;
1206;SDS011;593;53.184;8.216;2022-10-16T00:56:56;5.53;;;2.23;;
1206;SDS011;593;53.184;8.216;2022-10-16T00:59:26;1.30;;;1.20;;
1206;SDS011;593;53.184;8.216;2022-10-16T01:01:53;2.47;;;1.90;;
1206;SDS011;593;53.184;8.216;2022-10-16T01:04:19;1.60;;;1.50;;
1206;SDS011;593;53.184;8.216;2022-10-16T01:07:06;4.03;;;1.57;;
1206;SDS011;593;53.184;8.216;2022-10-16T01:16:03;2.50;;;1.70;;
1206;SDS011;593;53.184;8.216;2022-10-16T01:21:04;4.37;;;1.70;;
1206;SDS011;593;53.184;8.216;2022-10-16T01:26:41;2.27;;;1.60;;
1206;SDS011;593;53.184;8.216;2022-10-16T01:29:23;1.43;;;1.27;;
1206;SDS011;593;53.184;8.216;2022-10-16T01:31:55;1.77;;;1.40;;
1206;SDS011;593;53.184;8.216;2022-10-16T01:34:45;3.70;;;1.87;;
1206;SDS011;593;53.184;8.216;2022-10-16T01:37:21;1.93;;;1.80;;
1206;SDS011;593;53.184;8.216;2022-10-16T01:39:54;1.70;;;1.60;;
1206;SDS011;593;53.184;8.216;2022-10-16T01:42:24;2.03;;;1.80;;
1206;SDS011;593;53.184;8.216;2022-10-16T01:44:55;1.87;;;1.77;;
1206;SDS011;593;53.184;8.216;2022-10-16T01:47:23;1.37;;;1.27;;
1206;SDS011;593;53.184;8.216;2022-10-16T01:49:50;3.07;;;1.50;;
1206;SDS011;593;53.184;8.216;2022-10-16T01:52:19;2.17;;;1.20;;
1206;SDS011;593;53.184;8.216;2022-10-16T01:54:49;2.13;;;1.33;;
1206;SDS011;593;53.184;8.216;2022-10-16T01:57:17;2.13;;;1.20;;
1206;SDS011;593;53.184;8.216;2022-10-16T01:59:47;3.83;;;1.47;;
1206;SDS011;593;53.184;8.216;2022-10-16T02:02:17;2.53;;;1.13;;
1206;SDS011;593;53.184;8.216;2022-10-16T02:04:46;1.40;;;1.00;;
1206;SDS011;593;53.184;8.216;2022-10-16T02:07:16;2.07;;;1.20;;
1206;SDS011;593;53.184;8.216;2022-10-16T02:09:41;1.40;;;1.30;;
1206;SDS011;593;53.184;8.216;2022-10-16T02:12:12;1.83;;;1.10;;
1206;SDS011;593;53.184;8.216;2022-10-16T02:14:40;2.20;;;1.77;;
1206;SDS011;593;53.184;8.216;2022-10-16T02:17:12;1.00;;;1.00;;
1206;SDS011;593;53.184;8.216;2022-10-16T02:19:40;1.50;;;1.10;;
1206;SDS011;593;53.184;8.216;2022-10-16T02:22:07;4.97;;;1.80;;
1206;SDS011;593;53.184;8.216;2022-10-16T02:24:38;1.50;;;1.40;;
1206;SDS011;593;53.184;8.216;2022-10-16T02:27:31;1.57;;;1.37;;
1206;SDS011;593;53.184;8.216;2022-10-16T02:30:21;3.10;;;1.50;;
1206;SDS011;593;53.184;8.216;2022-10-16T02:32:49;1.63;;;0.93;;
1206;SDS011;593;53.184;8.216;2022-10-16T02:35:17;4.97;;;1.20;;
1206;SDS011;593;53.184;8.216;2022-10-16T02:37:45;2.17;;;1.13;;
1206;SDS011;593;53.184;8.216;2022-10-16T02:40:12;1.40;;;1.30;;
1206;SDS011;593;53.184;8.216;2022-10-16T02:42:38;1.30;;;1.20;;
1206;SDS011;593;53.184;8.216;2022-10-16T02:45:05;2.53;;;1.20;;
1206;SDS011;593;53.184;8.216;2022-10-16T02:47:32;1.93;;;1.27;;
1206;SDS011;593;53.184;8.216;2022-10-16T02:49:57;1.30;;;1.10;;
1206;SDS011;593;53.184;8.216;2022-10-16T02:52:22;4.10;;;1.67;;
1206;SDS011;593;53.184;8.216;2022-10-16T02:54:48;2.50;;;1.10;;
1206;SDS011;593;53.184;8.216;2022-10-16T02:57:13;1.10;;;1.00;;
1206;SDS011;593;53.184;8.216;2022-10-16T02:59:39;4.20;;;1.83;;
1206;SDS011;593;53.184;8.216;2022-10-16T03:02:04;3.33;;;1.37;;
1206;SDS011;593;53.184;8.216;2022-10-16T03:04:29;1.37;;;1.27;;
1206;SDS011;593;53.184;8.216;2022-10-16T03:06:55;1.47;;;0.90;;
1206;SDS011;593;53.184;8.216;2022-10-16T03:09:20;1.07;;;1.00;;
1206;SDS011;593;53.184;8.216;2022-10-16T03:11:46;1.90;;;1.20;;
1206;SDS011;593;53.184;8.216;2022-10-16T03:14:11;4.90;;;1.10;;
1206;SDS011;593;53.184;8.216;2022-10-16T03:16:36;1.13;;;1.00;;
1206;SDS011;593;53.184;8.216;2022-10-16T03:19:02;1.57;;;1.43;;
1206;SDS011;593;53.184;8.216;2022-10-16T03:21:27;2.37;;;0.80;;
1206;SDS011;593;53.184;8.216;2022-10-16T03:23:52;1.30;;;1.07;;
1206;SDS011;593;53.184;8.216;2022-10-16T03:26:18;1.10;;;0.90;;
1206;SDS011;593;53.184;8.216;2022-10-16T03:28:43;1.77;;;1.37;;
1206;SDS011;593;53.184;8.216;2022-10-16T03:31:08;0.83;;;0.83;;
1206;SDS011;593;53.184;8.216;2022-10-16T03:33:34;2.40;;;1.07;;
1206;SDS011;593;53.184;8.216;2022-10-16T03:35:59;2.47;;;1.20;;
1206;SDS011;593;53.184;8.216;2022-10-16T03:41:01;1.87;;;1.10;;
1206;SDS011;593;53.184;8.216;2022-10-16T03:43:26;1.60;;;1.30;;
1206;SDS011;593;53.184;8.216;2022-10-16T03:45:52;2.13;;;1.37;;
1206;SDS011;593;53.184;8.216;2022-10-16T03:48:18;1.70;;;1.20;;
1206;SDS011;593;53.184;8.216;2022-10-16T03:50:43;1.83;;;1.70;;
1206;SDS011;593;53.184;8.216;2022-10-16T03:53:09;2.40;;;1.27;;
1206;SDS011;593;53.184;8.216;2022-10-16T03:55:35;1.27;;;1.00;;
1206;SDS011;593;53.184;8.216;2022-10-16T03:58:00;1.83;;;1.40;;
1206;SDS011;593;53.184;8.216;2022-10-16T04:00:26;3.63;;;1.43;;
1206;SDS011;593;53.184;8.216;2022-10-16T04:02:51;1.27;;;1.17;;
1206;SDS011;593;53.184;8.216;2022-10-16T04:05:16;3.73;;;2.00;;
1206;SDS011;593;53.184;8.216;2022-10-16T04:07:42;3.53;;;1.87;;
1206;SDS011;593;53.184;8.216;2022-10-16T04:10:07;2.70;;;1.30;;
1206;SDS011;593;53.184;8.216;2022-10-16T04:12:33;1.50;;;1.40;;
1206;SDS011;593;53.184;8.216;2022-10-16T04:14:58;1.77;;;1.67;;
1206;SDS011;593;53.184;8.216;2022-10-16T04:17:23;3.63;;;2.13;;
1206;SDS011;593;53.184;8.216;2022-10-16T04:19:49;2.73;;;2.00;;
1206;SDS011;593;53.184;8.216;2022-10-16T04:22:14;2.90;;;1.30;;
1206;SDS011;593;53.184;8.216;2022-10-16T04:24:40;2.00;;;1.90;;
1206;SDS011;593;53.184;8.216;2022-10-16T04:27:05;5.00;;;1.90;;
1206;SDS011;593;53.184;8.216;2022-10-16T04:29:30;1.83;;;1.73;;
1206;SDS011;593;53.184;8.216;2022-10-16T04:31:56;3.87;;;2.00;;
1206;SDS011;593;53.184;8.216;2022-10-16T04:34:21;5.03;;;2.30;;
1206;SDS011;593;53.184;8.216;2022-10-16T04:36:47;2.77;;;2.57;;
1206;SDS011;593;53.184;8.216;2022-10-16T04:39:14;3.30;;;3.03;;
1206;SDS011;593;53.184;8.216;2022-10-16T04:41:39;3.87;;;2.13;;
1206;SDS011;593;53.184;8.216;2022-10-16T04:44:05;2.23;;;2.00;;
1206;SDS011;593;53.184;8.216;2022-10-16T04:46:30;3.53;;;3.20;;
1206;SDS011;593;53.184;8.216;2022-10-16T04:48:55;2.47;;;2.33;;
1206;SDS011;593;53.184;8.216;2022-10-16T04:51:20;2.90;;;2.63;;
1206;SDS011;593;53.184;8.216;2022-10-16T04:53:46;3.93;;;3.53;;
1206;SDS011;593;53.184;8.216;2022-10-16T04:56:11;2.97;;;2.73;;
1206;SDS011;593;53.184;8.216;2022-10-16T04:58:36;5.10;;;3.20;;
1206;SDS011;593;53.184;8.216;2022-10-16T05:01:02;3.17;;;2.97;;
1206;SDS011;593;53.184;8.216;2022-10-16T05:03:27;5.53;;;3.57;;
1206;SDS011;593;53.184;8.216;2022-10-16T05:05:52;3.47;;;3.10;;
1206;SDS011;593;53.184;8.216;2022-10-16T05:08:18;5.63;;;4.17;;
1206;SDS011;593;53.184;8.216;2022-10-16T05:10:43;5.40;;;3.60;;
1206;SDS011;593;53.184;8.216;2022-10-16T05:13:09;4.33;;;3.90;;
1206;SDS011;593;53.184;8.216;2022-10-16T05:15:35;5.60;;;4.23;;
1206;SDS011;593;53.184;8.216;2022-10-16T05:18:00;4.70;;;4.30;;
1206;SDS011;593;53.184;8.216;2022-10-16T05:20:26;5.23;;;4.30;;
1206;SDS011;593;53.184;8.216;2022-10-16T05:22:51;5.30;;;4.10;;
1206;SDS011;593;53.184;8.216;2022-10-16T05:25:16;4.90;;;4.40;;
1206;SDS011;593;53.184;8.216;2022-10-16T05:27:42;7.70;;;4.57;;
1206;SDS011;593;53.184;8.216;2022-10-16T05:30:08;5.50;;;5.00;;
1206;SDS011;593;53.184;8.216;2022-10-16T05:32:33;5.10;;;4.60;;
1206;SDS011;593;53.184;8.216;2022-10-16T05:34:59;7.50;;;5.73;;
1206;SDS011;593;53.184;8.216;2022-10-16T05:37:25;13.23;;;4.93;;
1206;SDS011;593;53.184;8.216;2022-10-16T05:39:50;6.87;;;4.80;;
1206;SDS011;593;53.184;8.216;2022-10-16T05:42:16;5.90;;;5.30;;
1206;SDS011;593;53.184;8.216;2022-10-16T05:44:41;5.20;;;4.70;;
1206;SDS011;593;53.184;8.216;2022-10-16T05:47:07;5.40;;;4.90;;
1206;SDS011;593;53.184;8.216;2022-10-16T05:49:34;4.87;;;4.40;;
1206;SDS011;593;53.184;8.216;2022-10-16T05:52:04;5.13;;;4.73;;
1206;SDS011;593;53.184;8.216;2022-10-16T05:54:37;7.57;;;5.70;;
1206;SDS011;593;53.184;8.216;2022-10-16T05:57:22;6.43;;;5.17;;
1206;SDS011;593;53.184;8.216;2022-10-16T05:59:47;6.70;;;5.07;;
1206;SDS011;593;53.184;8.216;2022-10-16T06:02:13;5.93;;;5.43;;
1206;SDS011;593;53.184;8.216;2022-10-16T06:04:43;6.27;;;4.70;;
1206;SDS011;593;53.184;8.216;2022-10-16T06:07:10;4.90;;;4.30;;
1206;SDS011;593;53.184;8.216;2022-10-16T06:09:35;6.70;;;5.23;;
1206;SDS011;593;53.184;8.216;2022-10-16T06:12:01;5.23;;;4.83;;
1206;SDS011;593;53.184;8.216;2022-10-16T06:14:27;5.93;;;5.30;;
1206;SDS011;593;53.184;8.216;2022-10-16T06:16:56;7.10;;;5.30;;
1206;SDS011;593;53.184;8.216;2022-10-16T06:19:21;6.10;;;5.30;;
1206;SDS011;593;53.184;8.216;2022-10-16T06:21:47;5.67;;;4.90;;
1206;SDS011;593;53.184;8.216;2022-10-16T06:24:13;6.03;;;4.87;;
1206;SDS011;593;53.184;8.216;2022-10-16T06:26:38;6.13;;;4.90;;
1206;SDS011;593;53.184;8.216;2022-10-16T06:29:03;5.07;;;4.67;;
1206;SDS011;593;53.184;8.216;2022-10-16T06:31:29;6.80;;;5.07;;
1206;SDS011;593;53.184;8.216;2022-10-16T06:33:56;4.60;;;4.20;;
1206;SDS011;593;53.184;8.216;2022-10-16T06:36:23;5.47;;;4.43;;
1206;SDS011;593;53.184;8.216;2022-10-16T06:38:49;9.17;;;4.27;;
1206;SDS011;593;53.184;8.216;2022-10-16T06:41:15;4.50;;;4.10;;
1206;SDS011;593;53.184;8.216;2022-10-16T06:43:42;4.60;;;3.90;;
1206;SDS011;593;53.184;8.216;2022-10-16T06:46:10;4.57;;;4.20;;
1206;SDS011;593;53.184;8.216;2022-10-16T06:48:37;5.13;;;4.70;;
1206;SDS011;593;53.184;8.216;2022-10-16T06:51:08;3.90;;;3.60;;
1206;SDS011;593;53.184;8.216;2022-10-16T06:53:37;5.43;;;4.17;;
1206;SDS011;593;53.184;8.216;2022-10-16T06:56:10;4.50;;;4.10;;
1206;SDS011;593;53.184;8.216;2022-10-16T06:58:38;4.37;;;3.97;;
1206;SDS011;593;53.184;8.216;2022-10-16T07:01:04;4.17;;;3.77;;
1206;SDS011;593;53.184;8.216;2022-10-16T07:03:30;6.37;;;3.70;;
1206;SDS011;593;53.184;8.216;2022-10-16T07:05:56;4.60;;;3.30;;
1206;SDS011;593;53.184;8.216;2022-10-16T07:08:21;3.80;;;3.50;;
1206;SDS011;593;53.184;8.216;2022-10-16T07:10:47;4.53;;;2.93;;
1206;SDS011;593;53.184;8.216;2022-10-16T07:13:13;6.23;;;3.60;;
1206;SDS011;593;53.184;8.216;2022-10-16T07:15:39;3.60;;;3.30;;
1206;SDS011;593;53.184;8.216;2022-10-16T07:18:05;3.83;;;3.47;;
1206;SDS011;593;53.184;8.216;2022-10-16T07:20:30;5.20;;;2.73;;
1206;SDS011;593;53.184;8.216;2022-10-16T07:22:55;3.33;;;2.57;;
1206;SDS011;593;53.184;8.216;2022-10-16T07:25:21;3.27;;;2.97;;
1206;SDS011;593;53.184;8.216;2022-10-16T07:27:46;3.90;;;3.50;;
1206;SDS011;593;53.184;8.216;2022-10-16T07:30:11;3.57;;;3.27;;
1206;SDS011;593;53.184;8.216;2022-10-16T07:32:37;4.40;;;3.50;;
1206;SDS011;593;53.184;8.216;2022-10-16T07:35:02;4.20;;;3.73;;
1206;SDS011;593;53.184;8.216;2022-10-16T07:37:28;3.10;;;2.80;;
1206;SDS011;593;53.184;8.216;2022-10-16T07:39:53;3.10;;;2.90;;
1206;SDS011;593;53.184;8.216;2022-10-16T07:42:19;3.77;;;3.23;;
1206;SDS011;593;53.184;8.216;2022-10-16T07:44:45;5.00;;;3.00;;
1206;SDS011;593;53.184;8.216;2022-10-16T07:47:10;3.90;;;2.53;;
1206;SDS011;593;53.184;8.216;2022-10-16T07:49:35;4.37;;;3.27;;
1206;SDS011;593;53.184;8.216;2022-10-16T07:52:01;3.13;;;2.93;;
1206;SDS011;593;53.184;8.216;2022-10-16T07:54:26;3.63;;;2.87;;
1206;SDS011;593;53.184;8.216;2022-10-16T07:56:51;3.87;;;2.90;;
1206;SDS011;593;53.184;8.216;2022-10-16T07:59:17;4.50;;;2.97;;
1206;SDS011;593;53.184;8.216;2022-10-16T08:01:42;5.70;;;3.00;;
1206;SDS011;593;53.184;8.216;2022-10-16T08:04:08;3.07;;;2.77;;
1206;SDS011;593;53.184;8.216;2022-10-16T08:06:37;3.23;;;2.77;;
1206;SDS011;593;53.184;8.216;2022-10-16T08:09:05;3.30;;;2.30;;
1206;SDS011;593;53.184;8.216;2022-10-16T08:11:31;2.60;;;2.40;;
1206;SDS011;593;53.184;8.216;2022-10-16T08:13:57;3.93;;;2.30;;
1206;SDS011;593;53.184;8.216;2022-10-16T08:16:23;3.70;;;2.07;;
1206;SDS011;593;53.184;8.216;2022-10-16T08:18:48;3.03;;;2.20;;
1206;SDS011;593;53.184;8.216;2022-10-16T08:21:17;2.53;;;2.33;;
1206;SDS011;593;53.184;8.216;2022-10-16T08:23:43;3.83;;;1.93;;
1206;SDS011;593;53.184;8.216;2022-10-16T08:26:09;2.03;;;1.87;;
1206;SDS011;593;53.184;8.216;2022-10-16T08:28:36;2.40;;;2.17;;
1206;SDS011;593;53.184;8.216;2022-10-16T08:33:33;2.33;;;1.57;;
1206;SDS011;593;53.184;8.216;2022-10-16T08:36:00;3.50;;;1.83;;
1206;SDS011;593;53.184;8.216;2022-10-16T08:38:25;1.43;;;1.33;;
1206;SDS011;593;53.184;8.216;2022-10-16T08:40:50;2.53;;;1.70;;
1206;SDS011;593;53.184;8.216;2022-10-16T08:48:18;3.30;;;1.30;;
1206;SDS011;593;53.184;8.216;2022-10-16T08:50:48;4.63;;;1.67;;
1206;SDS011;593;53.184;8.216;2022-10-16T08:53:18;1.43;;;1.33;;
1206;SDS011;593;53.184;8.216;2022-10-16T08:55:49;6.07;;;2.30;;
1206;SDS011;593;53.184;8.216;2022-10-16T08:58:26;1.43;;;1.33;;
1206;SDS011;593;53.184;8.216;2022-10-16T09:00:54;1.40;;;1.00;;
1206;SDS011;593;53.184;8.216;2022-10-16T09:11:17;1.87;;;1.30;;
1206;SDS011;593;53.184;8.216;2022-10-16T09:14:08;2.83;;;2.20;;
1206;SDS011;593;53.184;8.216;2022-10-16T09:17:03;4.13;;;1.43;;
1206;SDS011;593;53.184;8.216;2022-10-16T09:19:44;2.63;;;1.53;;
1206;SDS011;593;53.184;8.216;2022-10-16T09:22:15;1.57;;;0.90;;
1206;SDS011;593;53.184;8.216;2022-10-16T09:24:42;2.20;;;1.17;;
1206;SDS011;593;53.184;8.216;2022-10-16T09:27:11;3.10;;;1.27;;
1206;SDS011;593;53.184;8.216;2022-10-16T09:29:38;3.63;;;1.10;;
1206;SDS011;593;53.184;8.216;2022-10-16T09:32:17;1.37;;;1.20;;
1206;SDS011;593;53.184;8.216;2022-10-16T09:34:47;1.57;;;1.20;;
1206;SDS011;593;53.184;8.216;2022-10-16T09:37:17;1.70;;;0.93;;
1206;SDS011;593;53.184;8.216;2022-10-16T09:39:53;5.03;;;1.13;;
1206;SDS011;593;53.184;8.216;2022-10-16T09:42:20;0.90;;;0.80;;
1206;SDS011;593;53.184;8.216;2022-10-16T09:44:50;2.77;;;1.17;;
1206;SDS011;593;53.184;8.216;2022-10-16T09:47:20;4.07;;;1.63;;
1206;SDS011;593;53.184;8.216;2022-10-16T09:49:51;2.80;;;1.37;;
1206;SDS011;593;53.184;8.216;2022-10-16T09:52:18;3.57;;;1.07;;
1206;SDS011;593;53.184;8.216;2022-10-16T09:54:54;0.87;;;0.80;;
1206;SDS011;593;53.184;8.216;2022-10-16T09:57:24;0.90;;;0.80;;
1206;SDS011;593;53.184;8.216;2022-10-16T09:59:53;2.37;;;0.90;;
1206;SDS011;593;53.184;8.216;2022-10-16T10:04:58;3.07;;;0.77;;
1206;SDS011;593;53.184;8.216;2022-10-16T10:07:24;3.53;;;0.90;;
1206;SDS011;593;53.184;8.216;2022-10-16T10:09:52;3.43;;;0.90;;
1206;SDS011;593;53.184;8.216;2022-10-16T10:12:20;1.50;;;1.00;;
1206;SDS011;593;53.184;8.216;2022-10-16T10:14:50;1.63;;;0.77;;
1206;SDS011;593;53.184;8.216;2022-10-16T10:17:21;2.47;;;0.80;;
1206;SDS011;593;53.184;8.216;2022-10-16T10:19:58;1.43;;;0.80;;
1206;SDS011;593;53.184;8.216;2022-10-16T10:22:30;3.73;;;0.80;;
1206;SDS011;593;53.184;8.216;2022-10-16T10:25:12;1.60;;;0.83;;
1206;SDS011;593;53.184;8.216;2022-10-16T10:33:54;1.10;;;0.80;;
1206;SDS011;593;53.184;8.216;2022-10-16T10:39:15;0.60;;;0.60;;
1206;SDS011;593;53.184;8.216;2022-10-16T10:42:00;1.70;;;0.70;;
1206;SDS011;593;53.184;8.216;2022-10-16T10:44:33;1.20;;;0.80;;
1206;SDS011;593;53.184;8.216;2022-10-16T10:50:17;1.40;;;0.60;;
1206;SDS011;593;53.184;8.216;2022-10-16T10:56:20;1.97;;;0.67;;
1206;SDS011;593;53.184;8.216;2022-10-16T11:01:26;3.03;;;0.80;;
1206;SDS011;593;53.184;8.216;2022-10-16T11:04:27;0.80;;;0.70;;
1206;SDS011;593;53.184;8.216;2022-10-16T11:07:27;3.30;;;0.70;;
1206;SDS011;593;53.184;8.216;2022-10-16T11:10:02;2.70;;;0.60;;
1206;SDS011;593;53.184;8.216;2022-10-16T11:12:41;2.33;;;0.70;;
1206;SDS011;593;53.184;8.216;2022-10-16T11:15:14;1.57;;;0.70;;
1206;SDS011;593;53.184;8.216;2022-10-16T11:17:59;2.90;;;0.90;;
1206;SDS011;593;53.184;8.216;2022-10-16T11:20:34;2.17;;;0.80;;
1206;SDS011;593;53.184;8.216;2022-10-16T11:23:09;4.40;;;0.83;;
1206;SDS011;593;53.184;8.216;2022-10-16T11:25:41;3.17;;;0.80;;
1206;SDS011;593;53.184;8.216;2022-10-16T11:36:14;1.60;;;0.93;;
1206;SDS011;593;53.184;8.216;2022-10-16T11:44:32;0.80;;;0.50;;
1206;SDS011;593;53.184;8.216;2022-10-16T11:50:20;3.63;;;0.70;;
1206;SDS011;593;53.184;8.216;2022-10-16T11:52:44;1.70;;;0.60;;
1206;SDS011;593;53.184;8.216;2022-10-16T11:55:34;2.03;;;0.77;;
1206;SDS011;593;53.184;8.216;2022-10-16T12:00:36;2.53;;;0.70;;
1206;SDS011;593;53.184;8.216;2022-10-16T12:08:28;3.43;;;0.97;;
1206;SDS011;593;53.184;8.216;2022-10-16T12:11:05;2.13;;;0.70;;
1206;SDS011;593;53.184;8.216;2022-10-16T12:18:39;1.43;;;0.70;;
1206;SDS011;593;53.184;8.216;2022-10-16T12:21:06;3.37;;;0.70;;
1206;SDS011;593;53.184;8.216;2022-10-16T12:23:33;1.73;;;0.73;;
1206;SDS011;593;53.184;8.216;2022-10-16T12:26:02;1.90;;;0.70;;
1206;SDS011;593;53.184;8.216;2022-10-16T12:28:30;4.90;;;0.83;;
1206;SDS011;593;53.184;8.216;2022-10-16T12:31:01;5.60;;;0.70;;
1206;SDS011;593;53.184;8.216;2022-10-16T12:33:32;1.47;;;0.77;;
1206;SDS011;593;53.184;8.216;2022-10-16T12:36:00;1.50;;;0.73;;
1206;SDS011;593;53.184;8.216;2022-10-16T12:38:47;1.43;;;0.60;;
1206;SDS011;593;53.184;8.216;2022-10-16T12:41:34;5.80;;;0.80;;
1206;SDS011;593;53.184;8.216;2022-10-16T12:44:04;2.43;;;0.70;;
1206;SDS011;593;53.184;8.216;2022-10-16T12:49:05;4.83;;;0.73;;
1206;SDS011;593;53.184;8.216;2022-10-16T12:51:36;4.83;;;0.70;;
1206;SDS011;593;53.184;8.216;2022-10-16T12:54:12;6.23;;;0.70;;
1206;SDS011;593;53.184;8.216;2022-10-16T13:08:00;2.30;;;0.83;;
1206;SDS011;593;53.184;8.216;2022-10-16T13:10:34;2.03;;;0.83;;
1206;SDS011;593;53.184;8.216;2022-10-16T13:24:25;1.33;;;0.90;;
1206;SDS011;593;53.184;8.216;2022-10-16T13:26:56;2.30;;;0.90;;
1206;SDS011;593;53.184;8.216;2022-10-16T13:29:29;3.53;;;0.70;;
1206;SDS011;593;53.184;8.216;2022-10-16T13:31:56;3.90;;;0.90;;
1206;SDS011;593;53.184;8.216;2022-10-16T13:34:23;3.83;;;0.90;;
1206;SDS011;593;53.184;8.216;2022-10-16T13:36:50;4.13;;;0.73;;
1206;SDS011;593;53.184;8.216;2022-10-16T13:39:27;1.60;;;0.70;;
1206;SDS011;593;53.184;8.216;2022-10-16T13:44:25;1.00;;;0.70;;
1206;SDS011;593;53.184;8.216;2022-10-16T13:47:00;2.40;;;0.60;;
1206;SDS011;593;53.184;8.216;2022-10-16T13:49:26;2.50;;;0.70;;
1206;SDS011;593;53.184;8.216;2022-10-16T13:51:55;1.73;;;0.70;;
1206;SDS011;593;53.184;8.216;2022-10-16T13:54:22;1.83;;;1.00;;
1206;SDS011;593;53.184;8.216;2022-10-16T13:56:48;2.33;;;0.70;;
1206;SDS011;593;53.184;8.216;2022-10-16T13:59:27;3.73;;;1.20;;
1206;SDS011;593;53.184;8.216;2022-10-16T14:01:58;3.07;;;0.70;;
1206;SDS011;593;53.184;8.216;2022-10-16T14:04:26;1.63;;;0.70;;
1206;SDS011;593;53.184;8.216;2022-10-16T14:06:56;2.60;;;0.60;;
1206;SDS011;593;53.184;8.216;2022-10-16T14:11:58;1.97;;;0.90;;
1206;SDS011;593;53.184;8.216;2022-10-16T14:14:27;3.37;;;0.77;;
1206;SDS011;593;53.184;8.216;2022-10-16T14:16:59;1.80;;;0.80;;
1206;SDS011;593;53.184;8.216;2022-10-16T14:19:25;4.70;;;0.70;;
1206;SDS011;593;53.184;8.216;2022-10-16T14:21:53;2.73;;;0.80;;
1206;SDS011;593;53.184;8.216;2022-10-16T14:24:31;1.40;;;0.70;;
1206;SDS011;593;53.184;8.216;2022-10-16T14:26:58;1.30;;;0.90;;
1206;SDS011;593;53.184;8.216;2022-10-16T14:29:26;1.87;;;0.73;;
1206;SDS011;593;53.184;8.216;2022-10-16T14:37:23;2.10;;;0.80;;
1206;SDS011;593;53.184;8.216;2022-10-16T14:39:50;2.70;;;0.70;;
1206;SDS011;593;53.184;8.216;2022-10-16T14:42:17;3.50;;;0.80;;
1206;SDS011;593;53.184;8.216;2022-10-16T14:44:44;2.63;;;1.30;;
1206;SDS011;593;53.184;8.216;2022-10-16T14:47:19;2.13;;;0.70;;
1206;SDS011;593;53.184;8.216;2022-10-16T14:49:47;1.30;;;0.70;;
1206;SDS011;593;53.184;8.216;2022-10-16T14:52:13;3.80;;;1.07;;
1206;SDS011;593;53.184;8.216;2022-10-16T14:54:39;3.53;;;1.07;;
1206;SDS011;593;53.184;8.216;2022-10-16T14:57:05;2.97;;;0.80;;
1206;SDS011;593;53.184;8.216;2022-10-16T14:59:35;3.53;;;0.70;;
1206;SDS011;593;53.184;8.216;2022-10-16T15:02:20;1.23;;;0.60;;
1206;SDS011;593;53.184;8.216;2022-10-16T15:04:48;1.33;;;0.60;;
1206;SDS011;593;53.184;8.216;2022-10-16T15:07:14;5.03;;;0.90;;
1206;SDS011;593;53.184;8.216;2022-10-16T15:09:39;2.13;;;0.70;;
1206;SDS011;593;53.184;8.216;2022-10-16T15:12:05;0.80;;;0.70;;
1206;SDS011;593;53.184;8.216;2022-10-16T15:14:30;5.07;;;1.00;;
1206;SDS011;593;53.184;8.216;2022-10-16T15:16:56;1.57;;;0.80;;
1206;SDS011;593;53.184;8.216;2022-10-16T15:19:22;2.70;;;0.80;;
1206;SDS011;593;53.184;8.216;2022-10-16T15:21:47;2.50;;;0.93;;
1206;SDS011;593;53.184;8.216;2022-10-16T15:24:13;1.57;;;0.90;;
1206;SDS011;593;53.184;8.216;2022-10-16T15:26:39;1.43;;;0.80;;
1206;SDS011;593;53.184;8.216;2022-10-16T15:29:05;3.63;;;0.90;;
1206;SDS011;593;53.184;8.216;2022-10-16T15:31:31;2.33;;;1.23;;
1206;SDS011;593;53.184;8.216;2022-10-16T15:33:57;3.90;;;1.10;;
1206;SDS011;593;53.184;8.216;2022-10-16T15:36:30;2.60;;;0.70;;
1206;SDS011;593;53.184;8.216;2022-10-16T15:38:59;1.50;;;0.80;;
1206;SDS011;593;53.184;8.216;2022-10-16T15:41:25;2.03;;;0.90;;
1206;SDS011;593;53.184;8.216;2022-10-16T15:43:51;0.93;;;0.70;;
1206;SDS011;593;53.184;8.216;2022-10-16T15:46:18;3.10;;;1.13;;
1206;SDS011;593;53.184;8.216;2022-10-16T15:48:45;2.00;;;0.80;;
1206;SDS011;593;53.184;8.216;2022-10-16T15:51:10;4.53;;;0.90;;
1206;SDS011;593;53.184;8.216;2022-10-16T15:53:36;3.00;;;0.80;;
1206;SDS011;593;53.184;8.216;2022-10-16T15:56:02;1.10;;;0.90;;
1206;SDS011;593;53.184;8.216;2022-10-16T15:58:32;2.67;;;1.07;;
1206;SDS011;593;53.184;8.216;2022-10-16T16:00:58;1.20;;;0.70;;
1206;SDS011;593;53.184;8.216;2022-10-16T16:03:28;1.50;;;0.90;;
1206;SDS011;593;53.184;8.216;2022-10-16T16:05:54;2.80;;;1.30;;
1206;SDS011;593;53.184;8.216;2022-10-16T16:08:20;3.40;;;1.43;;
1206;SDS011;593;53.184;8.216;2022-10-16T16:10:56;3.23;;;1.03;;
1206;SDS011;593;53.184;8.216;2022-10-16T16:13:25;1.20;;;0.77;;
1206;SDS011;593;53.184;8.216;2022-10-16T16:15:50;1.40;;;0.90;;
1206;SDS011;593;53.184;8.216;2022-10-16T16:18:16;4.60;;;0.90;;
1206;SDS011;593;53.184;8.216;2022-10-16T16:20:41;1.70;;;1.10;;
1206;SDS011;593;53.184;8.216;2022-10-16T16:23:06;5.70;;;1.07;;
1206;SDS011;593;53.184;8.216;2022-10-16T16:25:32;3.20;;;0.93;;
1206;SDS011;593;53.184;8.216;2022-10-16T16:27:57;5.30;;;1.40;;
1206;SDS011;593;53.184;8.216;2022-10-16T16:30:22;4.67;;;0.80;;
1206;SDS011;593;53.184;8.216;2022-10-16T16:32:48;2.50;;;1.10;;
1206;SDS011;593;53.184;8.216;2022-10-16T16:35:13;1.73;;;0.80;;
1206;SDS011;593;53.184;8.216;2022-10-16T16:37:38;4.40;;;0.80;;
1206;SDS011;593;53.184;8.216;2022-10-16T16:40:04;3.33;;;1.00;;
1206;SDS011;593;53.184;8.216;2022-10-16T16:42:30;1.67;;;1.20;;
1206;SDS011;593;53.184;8.216;2022-10-16T16:44:55;5.47;;;1.00;;
1206;SDS011;593;53.184;8.216;2022-10-16T16:47:21;2.93;;;0.90;;
1206;SDS011;593;53.184;8.216;2022-10-16T16:49:46;3.43;;;0.90;;
1206;SDS011;593;53.184;8.216;2022-10-16T16:52:12;5.80;;;1.73;;
1206;SDS011;593;53.184;8.216;2022-10-16T16:54:38;2.40;;;1.20;;
1206;SDS011;593;53.184;8.216;2022-10-16T16:57:04;3.90;;;1.53;;
1206;SDS011;593;53.184;8.216;2022-10-16T16:59:29;2.50;;;1.03;;
1206;SDS011;593;53.184;8.216;2022-10-16T17:01:57;2.03;;;1.53;;
1206;SDS011;593;53.184;8.216;2022-10-16T17:04:23;4.77;;;1.20;;
1206;SDS011;593;53.184;8.216;2022-10-16T17:06:49;5.00;;;1.87;;
1206;SDS011;593;53.184;8.216;2022-10-16T17:09:14;1.60;;;1.43;;
1206;SDS011;593;53.184;8.216;2022-10-16T17:11:40;1.67;;;1.57;;
1206;SDS011;593;53.184;8.216;2022-10-16T17:14:09;4.73;;;1.87;;
1206;SDS011;593;53.184;8.216;2022-10-16T17:16:36;3.67;;;2.03;;
1206;SDS011;593;53.184;8.216;2022-10-16T17:19:04;4.43;;;2.07;;
1206;SDS011;593;53.184;8.216;2022-10-16T17:21:35;4.63;;;2.30;;
1206;SDS011;593;53.184;8.216;2022-10-16T17:24:00;2.60;;;1.77;;
1206;SDS011;593;53.184;8.216;2022-10-16T17:26:26;4.03;;;2.57;;
1206;SDS011;593;53.184;8.216;2022-10-16T17:28:53;4.50;;;1.60;;
1206;SDS011;593;53.184;8.216;2022-10-16T17:31:25;4.23;;;2.00;;
1206;SDS011;593;53.184;8.216;2022-10-16T17:33:52;3.00;;;2.37;;